Junius, South Dakota
Current Conditions -  °F | °C
As of 8:30 AM on Tuesday 27 Jan 2015 (Local Time) from KMDS Reporting Station
Scattered Clouds Scattered Clouds  
Wind Chill: -6°   Ceiling: Unl
Heat Index: -2°   Visibility: 10mi
Dew Point: -2°   Wind: 8mph
Humidity: 100%   Direction: 140°SE
Pressure: 30.06"   Gusts: NA
Location:  43.9866°N, 97.1364°W
Report Text: KMDS 271430Z AUTO 14007KT 10SM SCT003 M02/M02 A3006 RMK AO2
Loading
Personal Weather Stations






























Interactive Weather Map New forecast layout! Learn more

10-Day Weather Forecast

Advertisements
Track Severe Weather on mobile